createdAt,value
2022-11-05T00:00:32.857Z,9.90
2022-11-05T00:03:17.780Z,9.90
2022-11-05T00:06:04.219Z,9.90
2022-11-05T00:08:49.633Z,9.80
2022-11-05T00:11:18.442Z,9.80
2022-11-05T00:14:05.603Z,9.80
2022-11-05T00:16:45.688Z,9.80
2022-11-05T00:19:15.035Z,9.80
2022-11-05T00:22:00.875Z,9.80
2022-11-05T00:24:46.553Z,9.80
2022-11-05T00:27:15.044Z,9.80
2022-11-05T00:29:44.365Z,9.80
2022-11-05T00:32:12.320Z,9.70
2022-11-05T00:34:40.336Z,9.70
2022-11-05T00:37:08.276Z,9.70
2022-11-05T00:39:36.374Z,9.70
2022-11-05T00:42:21.579Z,9.70
2022-11-05T00:45:03.035Z,9.70
2022-11-05T00:47:49.647Z,9.70
2022-11-05T00:50:17.798Z,9.70
2022-11-05T00:52:58.098Z,9.70
2022-11-05T00:55:29.410Z,9.70
2022-11-05T00:57:58.556Z,9.70
2022-11-05T01:00:30.159Z,9.80
2022-11-05T01:03:02.706Z,9.70
2022-11-05T01:05:32.096Z,9.70
2022-11-05T01:08:00.334Z,9.70
2022-11-05T01:10:28.488Z,9.70
2022-11-05T01:13:00.096Z,9.70
2022-11-05T01:15:29.613Z,9.60
2022-11-05T01:17:57.712Z,9.60
2022-11-05T01:20:25.803Z,9.50
2022-11-05T01:22:54.084Z,9.50
2022-11-05T01:25:22.191Z,9.40
2022-11-05T01:27:50.189Z,9.40
2022-11-05T01:30:18.442Z,9.30
2022-11-05T01:32:47.808Z,9.40
2022-11-05T01:35:18.177Z,9.40
2022-11-05T01:37:46.645Z,9.40
2022-11-05T01:40:16.540Z,9.40
2022-11-05T01:42:44.930Z,9.40
2022-11-05T01:45:16.311Z,9.40
2022-11-05T01:47:58.720Z,9.40
2022-11-05T01:50:42.308Z,9.40
2022-11-05T01:53:20.850Z,9.40
2022-11-05T01:55:55.907Z,9.40
2022-11-05T01:58:29.990Z,9.40
2022-11-05T02:00:58.308Z,9.40
2022-11-05T02:03:28.690Z,9.40
2022-11-05T02:05:59.817Z,9.40
2022-11-05T02:08:41.584Z,9.50
2022-11-05T02:11:10.127Z,9.50
2022-11-05T02:13:38.214Z,9.50
2022-11-05T02:16:13.088Z,9.40
2022-11-05T02:18:52.663Z,9.40
2022-11-05T02:21:46.685Z,9.40
2022-11-05T02:24:40.527Z,9.40
2022-11-05T02:27:15.591Z,9.40
2022-11-05T02:30:05.072Z,9.30
2022-11-05T02:32:58.233Z,9.30
2022-11-05T02:35:43.211Z,9.30
2022-11-05T02:38:17.870Z,9.30
2022-11-05T02:40:55.892Z,9.20
2022-11-05T02:43:32.034Z,9.20
2022-11-05T02:46:04.472Z,9.20
2022-11-05T02:48:45.742Z,9.10
2022-11-05T02:51:21.980Z,9.10
2022-11-05T02:53:54.876Z,9.10
2022-11-05T02:56:26.647Z,9.00
2022-11-05T02:58:54.537Z,9.10
2022-11-05T03:01:22.645Z,9.00
2022-11-05T03:03:54.084Z,9.00
2022-11-05T03:06:49.441Z,9.10
2022-11-05T03:09:50.659Z,9.10
2022-11-05T03:12:28.025Z,9.10
2022-11-05T03:15:03.146Z,9.10
2022-11-05T03:17:41.897Z,9.00
2022-11-05T03:20:19.485Z,8.90
2022-11-05T03:22:52.819Z,8.90
2022-11-05T03:25:25.190Z,8.90
2022-11-05T03:27:58.149Z,8.90
2022-11-05T03:30:26.966Z,8.90
2022-11-05T03:32:59.981Z,8.90
2022-11-05T03:35:35.551Z,8.90
2022-11-05T03:38:07.299Z,8.90
2022-11-05T03:40:37.687Z,8.90
2022-11-05T03:43:09.675Z,8.90
2022-11-05T03:45:42.001Z,8.90
2022-11-05T03:48:13.799Z,8.90
2022-11-05T03:50:50.224Z,9.00
2022-11-05T03:53:23.599Z,8.80
2022-11-05T03:55:57.691Z,8.80
2022-11-05T03:58:27.311Z,8.70
2022-11-05T04:00:55.391Z,8.70
2022-11-05T04:03:23.425Z,8.70
2022-11-05T04:06:09.010Z,8.70
2022-11-05T04:08:54.458Z,8.60
2022-11-05T04:11:40.164Z,8.60
2022-11-05T04:14:08.164Z,8.60
2022-11-05T04:16:53.739Z,8.50
2022-11-05T04:19:42.520Z,8.50
2022-11-05T04:22:29.316Z,8.50
2022-11-05T04:24:57.401Z,8.50
2022-11-05T04:27:25.425Z,8.50
2022-11-05T04:30:10.809Z,8.40
2022-11-05T04:32:38.809Z,8.50
2022-11-05T04:35:07.168Z,8.50
2022-11-05T04:37:36.518Z,8.50
2022-11-05T04:40:04.709Z,8.60
2022-11-05T04:42:32.699Z,8.50
2022-11-05T04:45:00.725Z,8.60
2022-11-05T04:47:28.705Z,8.50
2022-11-05T04:49:56.736Z,8.50
2022-11-05T04:52:24.793Z,8.50
2022-11-05T04:54:54.181Z,8.50
2022-11-05T04:57:22.236Z,8.50
2022-11-05T04:59:50.498Z,8.50
2022-11-05T05:02:18.639Z,8.50
2022-11-05T05:04:46.712Z,8.50
2022-11-05T05:07:14.759Z,8.50
2022-11-05T05:09:42.810Z,8.50
2022-11-05T05:12:12.106Z,8.60
2022-11-05T05:14:40.446Z,8.50
2022-11-05T05:17:08.450Z,8.50
2022-11-05T05:19:56.576Z,8.50
2022-11-05T05:22:23.508Z,8.50
2022-11-05T05:24:52.919Z,8.40
2022-11-05T05:27:23.408Z,8.40
2022-11-05T05:29:51.689Z,8.40
2022-11-05T05:32:19.811Z,8.30
2022-11-05T05:34:48.136Z,8.30
2022-11-05T05:37:16.484Z,8.30
2022-11-05T05:39:46.093Z,8.30
2022-11-05T05:42:14.554Z,8.40
2022-11-05T05:44:44.060Z,8.40
2022-11-05T05:47:12.186Z,8.40
2022-11-05T05:49:40.307Z,8.40
2022-11-05T05:52:08.386Z,8.40
2022-11-05T05:54:42.283Z,8.40
2022-11-05T05:57:11.298Z,8.40
2022-11-05T05:59:39.327Z,8.30
2022-11-05T06:02:08.827Z,8.20
2022-11-05T06:04:37.000Z,8.20
2022-11-05T06:07:05.234Z,8.20
2022-11-05T06:09:33.448Z,8.30
2022-11-05T06:12:01.465Z,8.30
2022-11-05T06:14:29.538Z,8.30
2022-11-05T06:16:57.525Z,8.30
2022-11-05T06:19:27.196Z,8.30
2022-11-05T06:21:55.133Z,8.30
2022-11-05T06:24:23.141Z,8.30
2022-11-05T06:26:51.198Z,8.30
2022-11-05T06:29:19.441Z,8.30
2022-11-05T06:31:47.476Z,8.30
2022-11-05T06:34:15.465Z,8.30
2022-11-05T06:36:45.047Z,8.30
2022-11-05T06:39:13.717Z,8.30
2022-11-05T06:42:17.261Z,8.30
2022-11-05T06:44:30.405Z,8.30
2022-11-05T06:46:58.470Z,8.40
2022-11-05T06:49:26.594Z,8.40
2022-11-05T06:51:55.969Z,8.30
2022-11-05T06:54:24.371Z,8.40
2022-11-05T06:56:52.492Z,8.40
2022-11-05T06:59:20.647Z,8.40
2022-11-05T07:01:48.837Z,8.40
2022-11-05T07:04:17.032Z,8.30
2022-11-05T07:06:45.037Z,8.30
2022-11-05T07:09:14.540Z,8.30
2022-11-05T07:11:42.609Z,8.40
2022-11-05T07:14:10.714Z,8.40
2022-11-05T07:16:39.341Z,8.50
2022-11-05T07:19:07.500Z,8.30
2022-11-05T07:21:35.492Z,8.30
2022-11-05T07:24:03.828Z,8.30
2022-11-05T07:26:34.681Z,8.30
2022-11-05T07:29:03.305Z,8.30
2022-11-05T07:31:31.390Z,8.40
2022-11-05T07:33:59.526Z,8.40
2022-11-05T07:36:27.560Z,8.50
2022-11-05T07:39:00.057Z,8.50
2022-11-05T07:41:29.303Z,8.60
2022-11-05T07:43:58.746Z,8.60
2022-11-05T07:46:26.745Z,8.60
2022-11-05T07:48:54.702Z,8.60
2022-11-05T07:51:23.087Z,8.70
2022-11-05T07:53:51.056Z,8.70
2022-11-05T07:56:19.162Z,8.70
2022-11-05T07:58:47.276Z,8.80
2022-11-05T08:01:16.750Z,8.90
2022-11-05T08:03:44.999Z,8.80
2022-11-05T08:06:16.690Z,8.80
2022-11-05T08:08:44.650Z,8.80
2022-11-05T08:11:13.363Z,8.80
2022-11-05T08:13:42.760Z,8.90
2022-11-05T08:16:11.119Z,8.80
2022-11-05T08:18:40.480Z,8.80
2022-11-05T08:21:09.492Z,8.80
2022-11-05T08:23:38.780Z,8.70
2022-11-05T08:26:07.140Z,8.80
2022-11-05T08:28:35.144Z,8.70
2022-11-05T08:31:03.053Z,8.80
2022-11-05T08:33:31.415Z,8.80
2022-11-05T08:36:04.584Z,8.80
2022-11-05T08:38:32.519Z,8.80
2022-11-05T08:41:00.507Z,8.80
2022-11-05T08:43:28.457Z,8.80
2022-11-05T08:45:56.400Z,8.80
2022-11-05T08:48:24.440Z,8.90
2022-11-05T08:50:52.475Z,9.00
2022-11-05T08:53:22.025Z,8.90
2022-11-05T08:55:51.449Z,9.10
2022-11-05T08:58:20.725Z,9.20
2022-11-05T09:00:50.504Z,9.20
2022-11-05T09:03:19.000Z,9.30
2022-11-05T09:05:47.244Z,9.30
2022-11-05T09:08:16.863Z,9.30
2022-11-05T09:10:47.726Z,9.30
2022-11-05T09:13:19.320Z,9.30
2022-11-05T09:15:48.727Z,9.30
2022-11-05T09:18:18.030Z,9.30
2022-11-05T09:20:46.471Z,9.30
2022-11-05T09:23:15.871Z,9.20
2022-11-05T09:25:44.022Z,9.30
2022-11-05T09:28:17.069Z,9.30
2022-11-05T09:30:46.500Z,9.30
2022-11-05T09:33:14.928Z,9.40
2022-11-05T09:35:43.935Z,9.30
2022-11-05T09:38:12.581Z,9.30
2022-11-05T09:40:46.519Z,9.30
2022-11-05T09:43:26.092Z,9.30
2022-11-05T09:46:00.395Z,9.30
2022-11-05T09:48:31.890Z,9.30
2022-11-05T09:51:00.785Z,9.40
2022-11-05T09:53:29.853Z,9.40
2022-11-05T09:56:00.066Z,9.40
2022-11-05T09:58:38.863Z,9.40
2022-11-05T10:01:12.310Z,9.50
2022-11-05T10:03:46.775Z,9.50
2022-11-05T10:06:26.522Z,9.50
2022-11-05T10:09:01.961Z,9.50
2022-11-05T10:11:38.642Z,9.40
2022-11-05T10:14:16.276Z,9.40
2022-11-05T10:16:49.759Z,9.50
2022-11-05T10:19:23.986Z,9.50
2022-11-05T10:22:10.701Z,9.40
2022-11-05T10:24:41.809Z,9.40
2022-11-05T10:27:15.587Z,9.40
2022-11-05T10:29:45.564Z,9.40
2022-11-05T10:32:21.529Z,9.40
2022-11-05T10:34:50.952Z,9.40
2022-11-05T10:37:20.905Z,9.40
2022-11-05T10:39:50.391Z,9.40
2022-11-05T10:42:35.937Z,9.40
2022-11-05T10:45:14.678Z,9.40
2022-11-05T10:47:53.350Z,9.40
2022-11-05T10:50:25.300Z,9.50
2022-11-05T10:52:59.091Z,9.50
2022-11-05T10:55:30.230Z,9.60
2022-11-05T10:58:10.213Z,9.60
2022-11-05T11:00:39.994Z,9.60
2022-11-05T11:03:36.872Z,9.60
2022-11-05T11:06:07.719Z,9.70
2022-11-05T11:08:37.653Z,9.70
2022-11-05T11:11:08.922Z,9.70
2022-11-05T11:14:00.389Z,9.70
2022-11-05T11:16:34.710Z,9.80
2022-11-05T11:19:04.105Z,9.70
2022-11-05T11:21:33.841Z,9.80
2022-11-05T11:24:03.828Z,9.80
2022-11-05T11:26:34.478Z,9.80
2022-11-05T11:29:09.417Z,9.80
2022-11-05T11:31:41.466Z,9.80
2022-11-05T11:34:17.694Z,9.80
2022-11-05T11:36:49.007Z,9.70
2022-11-05T11:39:20.587Z,9.70
2022-11-05T11:41:53.656Z,9.70
2022-11-05T11:44:27.089Z,9.70
2022-11-05T11:46:58.668Z,9.70
2022-11-05T11:49:40.550Z,9.70
2022-11-05T11:52:15.252Z,9.60
2022-11-05T11:54:43.730Z,9.70
2022-11-05T11:57:26.014Z,9.60
2022-11-05T12:00:08.236Z,9.60
2022-11-05T12:03:05.137Z,9.70
2022-11-05T12:05:40.133Z,9.70
2022-11-05T12:08:21.938Z,9.70
2022-11-05T12:10:58.915Z,9.70
2022-11-05T12:13:47.843Z,9.70
2022-11-05T12:16:25.076Z,9.70
2022-11-05T12:19:03.429Z,9.70
2022-11-05T12:21:52.649Z,9.70
2022-11-05T12:24:47.530Z,9.70
2022-11-05T12:27:27.626Z,9.70
2022-11-05T12:30:02.717Z,9.70
2022-11-05T12:32:48.284Z,9.70
2022-11-05T12:35:50.921Z,9.70
2022-11-05T12:38:32.636Z,9.70
2022-11-05T12:41:12.977Z,9.70
2022-11-05T12:43:54.397Z,9.70
2022-11-05T12:46:30.358Z,9.70
2022-11-05T12:49:32.835Z,9.70
2022-11-05T12:52:19.163Z,9.70
2022-11-05T12:55:01.088Z,9.70
2022-11-05T12:57:32.478Z,9.70
2022-11-05T13:00:08.249Z,9.70
2022-11-05T13:02:40.879Z,9.70
2022-11-05T13:05:19.428Z,9.70
2022-11-05T13:07:54.399Z,9.70
2022-11-05T13:10:29.161Z,9.70
2022-11-05T13:13:03.457Z,9.70
2022-11-05T13:15:36.338Z,9.70
2022-11-05T13:18:07.573Z,9.80
2022-11-05T13:20:39.741Z,9.80
2022-11-05T13:23:18.741Z,9.90
2022-11-05T13:25:53.620Z,9.80
2022-11-05T13:28:32.819Z,9.90
2022-11-05T13:31:05.393Z,9.80
2022-11-05T13:33:35.625Z,9.80
2022-11-05T13:36:26.875Z,9.80
2022-11-05T13:39:01.111Z,9.80
2022-11-05T13:41:39.213Z,9.80
2022-11-05T13:44:24.519Z,9.70
2022-11-05T13:47:09.825Z,9.70
2022-11-05T13:50:14.180Z,9.80
2022-11-05T13:52:57.746Z,10.00
2022-11-05T13:55:43.922Z,9.90
2022-11-05T13:58:28.600Z,9.80
2022-11-05T14:01:08.557Z,9.80
2022-11-05T14:03:39.404Z,9.70
2022-11-05T14:06:10.798Z,9.80
2022-11-05T14:08:44.542Z,9.80
2022-11-05T14:11:22.967Z,9.80
2022-11-05T14:13:56.215Z,9.80
2022-11-05T14:16:25.915Z,9.80
2022-11-05T14:18:56.590Z,9.70
2022-11-05T14:21:50.231Z,9.70
2022-11-05T14:24:43.135Z,9.70
2022-11-05T14:27:47.166Z,9.60
2022-11-05T14:30:45.041Z,9.70
2022-11-05T14:33:30.489Z,9.70
2022-11-05T14:36:43.353Z,9.60
2022-11-05T14:39:30.034Z,9.70
2022-11-05T14:42:05.638Z,9.60
2022-11-05T14:44:56.385Z,9.60
2022-11-05T14:47:27.190Z,9.70
2022-11-05T14:49:59.745Z,9.70
2022-11-05T14:52:28.147Z,9.70
2022-11-05T14:54:58.016Z,9.60
2022-11-05T14:58:20.307Z,9.70
2022-11-05T15:00:51.012Z,9.70
2022-11-05T15:04:00.458Z,9.70
2022-11-05T15:06:34.824Z,9.60
2022-11-05T15:09:15.694Z,9.60
2022-11-05T15:11:52.148Z,9.60
2022-11-05T15:14:24.468Z,9.50
2022-11-05T15:16:57.087Z,9.50
2022-11-05T15:19:30.126Z,9.50
2022-11-05T15:21:59.339Z,9.50
2022-11-05T15:24:29.204Z,9.50
2022-11-05T15:27:03.705Z,9.60
2022-11-05T15:29:35.165Z,9.50
2022-11-05T15:32:06.165Z,9.50
2022-11-05T15:34:35.888Z,9.50
2022-11-05T15:37:20.694Z,9.70
2022-11-05T15:39:50.470Z,9.70
2022-11-05T15:42:22.145Z,9.70
2022-11-05T15:44:54.541Z,9.60
2022-11-05T15:47:27.608Z,9.60
2022-11-05T15:49:58.880Z,9.60
2022-11-05T15:52:34.758Z,9.60
2022-11-05T15:55:23.724Z,9.60
2022-11-05T15:57:55.512Z,9.70
2022-11-05T16:00:25.731Z,9.70
2022-11-05T16:02:59.474Z,9.70
2022-11-05T16:05:30.199Z,9.70
2022-11-05T16:08:00.170Z,9.70
2022-11-05T16:10:31.593Z,9.70
2022-11-05T16:13:23.229Z,9.70
2022-11-05T16:15:55.790Z,9.70
2022-11-05T16:18:31.371Z,9.70
2022-11-05T16:21:04.678Z,9.70
2022-11-05T16:23:45.146Z,9.80
2022-11-05T16:27:01.263Z,9.70
2022-11-05T16:29:29.036Z,9.80
2022-11-05T16:31:59.008Z,9.80
2022-11-05T16:34:33.244Z,9.80
2022-11-05T16:37:01.739Z,9.70
2022-11-05T16:39:29.859Z,9.70
2022-11-05T16:41:58.767Z,9.80
2022-11-05T16:44:27.370Z,9.80
2022-11-05T16:46:58.764Z,9.80
2022-11-05T16:49:28.630Z,9.80
2022-11-05T16:51:56.667Z,9.80
2022-11-05T16:54:26.713Z,9.70
2022-11-05T16:56:54.870Z,9.70
2022-11-05T16:59:22.914Z,9.70
2022-11-05T17:01:55.616Z,9.70
2022-11-05T17:04:24.132Z,9.70
2022-11-05T17:06:53.435Z,9.60
2022-11-05T17:09:21.494Z,9.60
2022-11-05T17:11:53.443Z,9.70
2022-11-05T17:14:21.487Z,9.60
2022-11-05T17:16:49.854Z,9.70
2022-11-05T17:19:18.018Z,9.70
2022-11-05T17:21:46.123Z,9.70
2022-11-05T17:24:15.899Z,9.70
2022-11-05T17:26:43.993Z,9.70
2022-11-05T17:29:12.020Z,9.70
2022-11-05T17:31:42.902Z,9.60
2022-11-05T17:34:12.881Z,9.60
2022-11-05T17:36:41.384Z,9.60
2022-11-05T17:39:11.042Z,9.60
2022-11-05T17:41:50.253Z,9.60
2022-11-05T17:44:18.361Z,9.60
2022-11-05T17:46:49.800Z,9.60
2022-11-05T17:49:18.367Z,9.70
2022-11-05T17:51:49.369Z,9.70
2022-11-05T17:54:19.814Z,9.60
2022-11-05T17:56:50.633Z,9.60
2022-11-05T17:59:21.077Z,9.60
2022-11-05T18:01:49.233Z,9.60
2022-11-05T18:04:17.659Z,9.60
2022-11-05T18:06:45.747Z,9.60
2022-11-05T18:09:14.653Z,9.60
2022-11-05T18:11:43.883Z,9.70
2022-11-05T18:14:13.410Z,9.60
2022-11-05T18:16:41.565Z,9.60
2022-11-05T18:19:09.610Z,9.60
2022-11-05T18:21:37.720Z,9.60
2022-11-05T18:24:07.317Z,9.80
2022-11-05T18:26:36.289Z,9.60
2022-11-05T18:29:06.340Z,9.50
2022-11-05T18:31:35.870Z,9.50
2022-11-05T18:34:04.543Z,9.50
2022-11-05T18:36:33.949Z,9.50
2022-11-05T18:39:03.234Z,9.40
2022-11-05T18:41:31.808Z,9.40
2022-11-05T18:44:01.071Z,9.40
2022-11-05T18:46:56.679Z,9.30
2022-11-05T18:49:19.535Z,9.40
2022-11-05T18:51:47.517Z,9.50
2022-11-05T18:54:15.633Z,9.30
2022-11-05T18:56:46.064Z,9.30
2022-11-05T18:59:35.777Z,9.30
2022-11-05T19:02:03.970Z,9.30
2022-11-05T19:04:33.624Z,9.30
2022-11-05T19:07:04.772Z,9.30
2022-11-05T19:09:33.929Z,9.30
2022-11-05T19:12:02.121Z,9.20
2022-11-05T19:14:31.001Z,9.20
2022-11-05T19:16:59.406Z,9.20
2022-11-05T19:19:28.103Z,9.20
2022-11-05T19:21:57.982Z,9.30
2022-11-05T19:24:26.092Z,9.30
2022-11-05T19:26:54.264Z,9.30
2022-11-05T19:29:22.773Z,9.20
2022-11-05T19:31:50.913Z,9.20
2022-11-05T19:34:20.593Z,9.20
2022-11-05T19:36:48.821Z,9.20
2022-11-05T19:39:18.299Z,9.20
2022-11-05T19:41:48.187Z,9.20
2022-11-05T19:44:16.513Z,9.20
2022-11-05T19:46:45.099Z,9.20
2022-11-05T19:49:13.952Z,9.20
2022-11-05T19:51:42.176Z,9.20
2022-11-05T19:54:10.310Z,9.20
2022-11-05T19:56:40.101Z,9.20
2022-11-05T19:59:08.749Z,9.20
2022-11-05T20:01:38.135Z,9.20
2022-11-05T20:04:06.891Z,9.20
2022-11-05T20:06:40.503Z,9.20
2022-11-05T20:09:25.804Z,9.20
2022-11-05T20:11:56.694Z,9.60
2022-11-05T20:14:26.287Z,9.30
2022-11-05T20:16:55.196Z,9.20
2022-11-05T20:19:24.320Z,9.30
2022-11-05T20:21:53.137Z,9.30
2022-11-05T20:24:25.340Z,9.20
2022-11-05T20:26:56.959Z,9.30
2022-11-05T20:29:33.689Z,9.40
2022-11-05T20:32:03.933Z,9.30
2022-11-05T20:34:33.264Z,9.30
2022-11-05T20:37:01.657Z,9.20
2022-11-05T20:39:30.112Z,9.20
2022-11-05T20:42:00.651Z,9.20
2022-11-05T20:44:29.103Z,9.20
2022-11-05T20:46:57.268Z,9.20
2022-11-05T20:49:26.061Z,9.20
2022-11-05T20:51:54.781Z,9.30
2022-11-05T20:54:23.207Z,9.20
2022-11-05T20:56:52.313Z,9.40
2022-11-05T20:59:22.268Z,9.30
2022-11-05T21:01:51.949Z,9.20
2022-11-05T21:04:20.514Z,9.20
2022-11-05T21:06:48.723Z,9.20
2022-11-05T21:09:17.147Z,9.20
2022-11-05T21:12:05.471Z,9.20
2022-11-05T21:14:34.985Z,9.10
2022-11-05T21:17:03.322Z,9.20
2022-11-05T21:19:32.466Z,9.10
2022-11-05T21:22:00.837Z,9.20
2022-11-05T21:24:29.016Z,9.10
2022-11-05T21:26:59.274Z,9.20
2022-11-05T21:29:27.391Z,9.10
2022-11-05T21:31:56.640Z,9.20
2022-11-05T21:34:25.237Z,9.10
2022-11-05T21:36:53.366Z,9.10
2022-11-05T21:39:21.404Z,9.10
2022-11-05T21:41:49.421Z,9.20
2022-11-05T21:44:17.481Z,9.10
2022-11-05T21:46:45.473Z,9.20
2022-11-05T21:49:15.554Z,9.10
2022-11-05T21:52:00.974Z,9.20
2022-11-05T21:54:46.349Z,9.10
2022-11-05T21:57:33.913Z,9.10
2022-11-05T22:00:02.003Z,9.10
2022-11-05T22:02:32.494Z,9.10
2022-11-05T22:05:02.575Z,9.10
2022-11-05T22:07:33.408Z,9.10
2022-11-05T22:10:02.451Z,9.00
2022-11-05T22:12:31.991Z,9.10
2022-11-05T22:15:00.077Z,9.10
2022-11-05T22:17:28.636Z,9.00
2022-11-05T22:19:56.651Z,9.00
2022-11-05T22:22:26.096Z,9.00
2022-11-05T22:24:54.235Z,9.00
2022-11-05T22:27:22.576Z,9.00
2022-11-05T22:29:51.113Z,9.00
2022-11-05T22:32:19.561Z,8.90
2022-11-05T22:34:49.194Z,8.90
2022-11-05T22:37:17.391Z,9.00
2022-11-05T22:39:46.691Z,9.00
2022-11-05T22:42:14.696Z,8.90
2022-11-05T22:44:43.077Z,8.90
2022-11-05T22:47:11.101Z,8.90
2022-11-05T22:49:39.204Z,8.80
2022-11-05T22:52:07.818Z,8.80
2022-11-05T22:54:39.245Z,8.80
2022-11-05T22:57:09.146Z,8.70
2022-11-05T22:59:37.919Z,8.70
2022-11-05T23:02:09.904Z,8.70
2022-11-05T23:04:38.658Z,8.70
2022-11-05T23:07:27.918Z,8.60
2022-11-05T23:10:14.155Z,8.60
2022-11-05T23:12:44.722Z,8.50
2022-11-05T23:15:34.366Z,8.60
2022-11-05T23:18:20.421Z,8.50
2022-11-05T23:21:06.889Z,8.50
2022-11-05T23:23:52.421Z,8.50
2022-11-05T23:26:37.922Z,8.40
2022-11-05T23:29:07.210Z,8.30
2022-11-05T23:31:52.652Z,8.30
2022-11-05T23:34:20.631Z,8.20
2022-11-05T23:37:06.095Z,8.20
2022-11-05T23:39:39.637Z,8.20
2022-11-05T23:42:28.779Z,8.10
2022-11-05T23:45:16.064Z,8.20
2022-11-05T23:48:02.084Z,8.10
2022-11-05T23:50:35.664Z,8.10
2022-11-05T23:53:07.971Z,8.00
2022-11-05T23:55:36.294Z,8.00
2022-11-05T23:58:04.395Z,8.00
